createdAt,value
2017-09-04T00:01:00.855Z,12.00
2017-09-04T00:03:27.308Z,12.00
2017-09-04T00:05:53.976Z,11.90
2017-09-04T00:08:20.416Z,11.80
2017-09-04T00:10:46.844Z,11.90
2017-09-04T00:13:13.435Z,11.90
2017-09-04T00:15:39.921Z,12.00
2017-09-04T00:18:06.347Z,12.00
2017-09-04T00:20:33.291Z,12.00
2017-09-04T00:22:59.748Z,12.10
2017-09-04T00:25:26.225Z,12.20
2017-09-04T00:27:52.841Z,12.20
2017-09-04T00:30:19.662Z,12.10
2017-09-04T00:32:46.126Z,12.10
2017-09-04T00:35:12.583Z,12.00
2017-09-04T00:37:40.061Z,12.20
2017-09-04T00:40:06.523Z,12.20
2017-09-04T00:42:32.978Z,12.20
2017-09-04T00:44:59.766Z,12.20
2017-09-04T00:47:26.385Z,12.20
2017-09-04T00:49:53.152Z,12.20
2017-09-04T00:52:19.928Z,12.10
2017-09-04T00:54:46.438Z,12.00
2017-09-04T00:57:13.266Z,11.90
2017-09-04T00:59:39.731Z,12.00
2017-09-04T01:02:06.397Z,12.10
2017-09-04T01:04:33.287Z,12.00
2017-09-04T01:06:59.767Z,11.90
2017-09-04T01:09:26.268Z,11.90
2017-09-04T01:11:52.985Z,11.90
2017-09-04T01:14:19.628Z,11.80
2017-09-04T01:16:46.112Z,11.80
2017-09-04T01:19:12.898Z,11.70
2017-09-04T01:21:39.545Z,11.60
2017-09-04T01:24:05.983Z,11.40
2017-09-04T01:26:32.703Z,11.40
2017-09-04T01:28:59.146Z,11.40
2017-09-04T01:31:25.633Z,11.40
2017-09-04T01:33:52.321Z,11.30
2017-09-04T01:36:18.965Z,11.20
2017-09-04T01:38:45.703Z,11.20
2017-09-04T01:41:12.341Z,11.20
2017-09-04T01:43:38.786Z,11.20
2017-09-04T01:46:05.241Z,11.30
2017-09-04T01:48:31.950Z,11.30
2017-09-04T01:50:58.387Z,11.30
2017-09-04T01:53:25.113Z,11.30
2017-09-04T01:55:51.560Z,11.30
2017-09-04T01:58:18.013Z,11.30
2017-09-04T02:00:44.727Z,11.20
2017-09-04T02:03:11.358Z,11.20
2017-09-04T02:05:37.815Z,11.20
2017-09-04T02:08:04.522Z,11.10
2017-09-04T02:10:31.171Z,11.10
2017-09-04T02:12:57.632Z,11.10
2017-09-04T02:15:24.341Z,11.20
2017-09-04T02:17:50.970Z,11.20
2017-09-04T02:20:17.618Z,11.00
2017-09-04T02:22:44.256Z,11.00
2017-09-04T02:25:10.722Z,10.80
2017-09-04T02:27:37.334Z,10.80
2017-09-04T02:30:04.129Z,10.80
2017-09-04T02:32:30.575Z,10.80
2017-09-04T02:34:57.447Z,10.80
2017-09-04T02:37:23.903Z,10.80
2017-09-04T02:39:50.714Z,10.80
2017-09-04T02:42:17.557Z,10.70
2017-09-04T02:44:44.198Z,10.70
2017-09-04T02:47:10.808Z,10.70
2017-09-04T02:49:37.248Z,10.70
2017-09-04T02:52:03.907Z,10.60
2017-09-04T02:54:30.646Z,10.70
2017-09-04T02:56:57.417Z,10.70
2017-09-04T02:59:23.866Z,10.60
2017-09-04T03:01:50.624Z,10.60
2017-09-04T03:04:17.059Z,10.50
2017-09-04T03:06:43.683Z,10.50
2017-09-04T03:09:10.475Z,10.50
2017-09-04T03:11:37.209Z,10.40
2017-09-04T03:14:03.696Z,10.40
2017-09-04T03:16:30.404Z,10.40
2017-09-04T03:18:57.034Z,10.40
2017-09-04T03:21:23.661Z,10.40
2017-09-04T03:23:50.151Z,10.30
2017-09-04T03:26:16.965Z,10.30
2017-09-04T03:28:43.446Z,10.30
2017-09-04T03:31:10.216Z,10.20
2017-09-04T03:33:36.961Z,10.20
2017-09-04T03:36:04.724Z,10.20
2017-09-04T03:38:31.466Z,10.10
2017-09-04T03:40:58.005Z,10.00
2017-09-04T03:43:24.540Z,10.10
2017-09-04T03:45:51.372Z,10.00
2017-09-04T03:48:18.114Z,10.10
2017-09-04T03:50:44.654Z,10.00
2017-09-04T03:53:11.381Z,10.10
2017-09-04T03:55:38.137Z,10.00
2017-09-04T03:58:04.672Z,10.10
2017-09-04T04:00:31.404Z,10.10
2017-09-04T04:02:58.136Z,10.10
2017-09-04T04:05:24.652Z,10.10
2017-09-04T04:07:51.137Z,10.10
2017-09-04T04:10:17.844Z,10.20
2017-09-04T04:12:44.598Z,10.10
2017-09-04T04:15:11.105Z,10.20
2017-09-04T04:17:37.599Z,10.20
2017-09-04T04:20:04.295Z,10.20
2017-09-04T04:22:30.788Z,10.20
2017-09-04T04:24:57.680Z,10.20
2017-09-04T04:27:24.335Z,10.20
2017-09-04T04:29:50.796Z,10.30
2017-09-04T04:32:17.486Z,10.30
2017-09-04T04:34:44.226Z,10.30
2017-09-04T04:37:10.661Z,10.30
2017-09-04T04:39:37.117Z,10.30
2017-09-04T04:42:03.726Z,10.30
2017-09-04T04:44:30.372Z,10.20
2017-09-04T04:46:57.012Z,10.30
2017-09-04T04:49:23.459Z,10.30
2017-09-04T04:51:50.076Z,10.30
2017-09-04T04:54:16.501Z,10.30
2017-09-04T04:56:43.246Z,10.30
2017-09-04T04:59:09.694Z,10.40
2017-09-04T05:01:36.427Z,10.40
2017-09-04T05:04:03.172Z,10.40
2017-09-04T05:06:29.626Z,10.30
2017-09-04T05:08:56.250Z,10.30
2017-09-04T05:11:22.880Z,10.30
2017-09-04T05:13:49.607Z,10.30
2017-09-04T05:16:16.051Z,10.40
2017-09-04T05:18:42.689Z,10.50
2017-09-04T05:21:09.420Z,10.50
2017-09-04T05:23:36.060Z,10.50
2017-09-04T05:26:02.750Z,10.60
2017-09-04T05:28:29.200Z,10.60
2017-09-04T05:30:55.823Z,10.60
2017-09-04T05:33:22.267Z,10.70
2017-09-04T05:35:49.047Z,10.80
2017-09-04T05:38:15.677Z,10.90
2017-09-04T05:40:42.322Z,11.00
2017-09-04T05:43:08.957Z,11.10
2017-09-04T05:45:35.407Z,11.20
2017-09-04T05:48:02.229Z,11.30
2017-09-04T05:50:28.984Z,11.50
2017-09-04T05:52:55.456Z,11.50
2017-09-04T05:55:22.118Z,11.60
2017-09-04T05:57:49.007Z,11.70
2017-09-04T06:00:15.491Z,11.90
2017-09-04T06:02:42.155Z,12.10
2017-09-04T06:05:08.911Z,12.30
2017-09-04T06:07:35.604Z,12.50
2017-09-04T06:10:02.292Z,12.60
2017-09-04T06:12:29.019Z,12.70
2017-09-04T06:14:55.453Z,12.90
2017-09-04T06:17:21.904Z,13.00
2017-09-04T06:19:48.600Z,13.30
2017-09-04T06:22:16.084Z,13.60
2017-09-04T06:24:42.727Z,13.50
2017-09-04T06:27:09.182Z,13.80
2017-09-04T06:29:35.892Z,14.10
2017-09-04T06:32:02.577Z,14.40
2017-09-04T06:34:29.029Z,14.70
2017-09-04T06:36:55.699Z,14.60
2017-09-04T06:39:22.452Z,14.70
2017-09-04T06:41:49.294Z,14.90
2017-09-04T06:44:15.768Z,15.10
2017-09-04T06:46:42.459Z,15.20
2017-09-04T06:49:08.982Z,15.20
2017-09-04T06:51:35.451Z,15.30
2017-09-04T06:54:02.280Z,15.30
2017-09-04T06:56:29.038Z,15.30
2017-09-04T06:58:55.962Z,15.50
2017-09-04T07:01:22.454Z,15.50
2017-09-04T07:03:49.135Z,15.60
2017-09-04T07:06:15.769Z,15.80
2017-09-04T07:08:42.623Z,15.80
2017-09-04T07:11:09.453Z,15.70
2017-09-04T07:13:36.160Z,15.80
2017-09-04T07:16:02.713Z,15.90
2017-09-04T07:18:29.376Z,16.00
2017-09-04T07:20:55.851Z,16.10
2017-09-04T07:23:22.549Z,16.10
2017-09-04T07:25:49.174Z,16.20
2017-09-04T07:28:15.622Z,16.20
2017-09-04T07:30:42.077Z,16.20
2017-09-04T07:33:08.880Z,16.20
2017-09-04T07:35:35.329Z,16.40
2017-09-04T07:38:02.837Z,16.60
2017-09-04T07:40:29.628Z,16.60
2017-09-04T07:42:56.365Z,16.60
2017-09-04T07:45:22.993Z,16.60
2017-09-04T07:47:49.430Z,16.70
2017-09-04T07:50:15.899Z,16.80
2017-09-04T07:52:42.626Z,16.80
2017-09-04T07:55:09.339Z,16.80
2017-09-04T07:57:35.838Z,16.80
2017-09-04T08:00:03.234Z,16.50
2017-09-04T08:02:29.836Z,16.40
2017-09-04T08:04:57.042Z,16.50
2017-09-04T08:07:23.561Z,16.50
2017-09-04T08:09:50.399Z,16.50
2017-09-04T08:12:17.039Z,16.60
2017-09-04T08:14:43.520Z,16.70
2017-09-04T08:17:10.228Z,16.70
2017-09-04T08:19:42.862Z,16.80
2017-09-04T08:22:09.352Z,16.80
2017-09-04T08:24:36.275Z,16.80
2017-09-04T08:27:02.941Z,17.00
2017-09-04T08:29:29.655Z,17.10
2017-09-04T08:31:56.117Z,17.20
2017-09-04T08:34:22.563Z,17.20
2017-09-04T08:36:49.292Z,17.40
2017-09-04T08:39:15.998Z,17.40
2017-09-04T08:41:42.440Z,17.50
2017-09-04T08:44:09.102Z,17.50
2017-09-04T08:46:35.748Z,17.40
2017-09-04T08:49:02.413Z,17.50
2017-09-04T08:51:28.870Z,17.50
2017-09-04T08:53:55.614Z,17.50
2017-09-04T08:56:22.345Z,17.50
2017-09-04T08:58:48.853Z,17.60
2017-09-04T09:01:15.641Z,17.50
2017-09-04T09:03:42.370Z,17.50
2017-09-04T09:06:09.114Z,17.70
2017-09-04T09:08:35.934Z,17.80
2017-09-04T09:11:02.388Z,17.80
2017-09-04T09:13:29.140Z,17.90
2017-09-04T09:15:55.602Z,18.00
2017-09-04T09:18:22.321Z,18.00
2017-09-04T09:20:48.838Z,18.00
2017-09-04T09:23:15.569Z,18.10
2017-09-04T09:25:42.321Z,18.20
2017-09-04T09:28:09.063Z,18.30
2017-09-04T09:30:35.854Z,18.50
2017-09-04T09:33:02.651Z,18.70
2017-09-04T09:35:29.141Z,18.70
2017-09-04T09:37:55.803Z,18.70
2017-09-04T09:40:22.266Z,18.70
2017-09-04T09:42:48.731Z,18.70
2017-09-04T09:45:15.417Z,18.80
2017-09-04T09:47:42.160Z,19.00
2017-09-04T09:50:08.945Z,19.10
2017-09-04T09:52:35.394Z,19.10
2017-09-04T09:55:02.092Z,19.10
2017-09-04T09:57:28.825Z,19.10
2017-09-04T09:59:55.301Z,19.10
2017-09-04T10:02:21.955Z,19.10
2017-09-04T10:04:48.632Z,19.10
2017-09-04T10:07:15.106Z,19.10
2017-09-04T10:09:41.638Z,19.20
2017-09-04T10:12:08.351Z,19.30
2017-09-04T10:14:35.005Z,19.40
2017-09-04T10:17:01.455Z,19.40
2017-09-04T10:19:27.910Z,19.40
2017-09-04T10:21:54.586Z,19.40
2017-09-04T10:24:21.077Z,19.40
2017-09-04T10:26:47.790Z,19.50
2017-09-04T10:29:14.487Z,19.60
2017-09-04T10:31:40.980Z,19.60
2017-09-04T10:34:07.800Z,19.40
2017-09-04T10:36:34.625Z,19.40
2017-09-04T10:39:01.456Z,19.50
2017-09-04T10:41:28.205Z,19.60
2017-09-04T10:43:54.947Z,19.60
2017-09-04T10:46:21.430Z,19.70
2017-09-04T10:48:47.922Z,19.90
2017-09-04T10:51:14.657Z,20.00
2017-09-04T10:53:41.392Z,20.10
2017-09-04T10:56:07.924Z,20.10
2017-09-04T10:58:34.669Z,20.10
2017-09-04T11:01:01.108Z,20.00
2017-09-04T11:03:27.840Z,20.00
2017-09-04T11:05:54.537Z,20.00
2017-09-04T11:08:21.215Z,19.90
2017-09-04T11:10:47.991Z,19.80
2017-09-04T11:13:14.475Z,19.70
2017-09-04T11:15:40.956Z,19.90
2017-09-04T11:18:07.670Z,20.00
2017-09-04T11:20:34.406Z,20.00
2017-09-04T11:23:01.153Z,20.20
2017-09-04T11:25:27.640Z,20.20
2017-09-04T11:27:54.318Z,20.00
2017-09-04T11:30:20.808Z,20.00
2017-09-04T11:32:47.325Z,19.90
2017-09-04T11:35:14.135Z,19.90
2017-09-04T11:37:40.871Z,20.00
2017-09-04T11:40:07.517Z,20.20
2017-09-04T11:42:34.280Z,20.30
2017-09-04T11:45:00.725Z,20.50
2017-09-04T11:47:27.451Z,20.40
2017-09-04T11:49:53.938Z,20.60
2017-09-04T11:52:20.392Z,20.60
2017-09-04T11:54:47.025Z,20.70
2017-09-04T11:57:13.484Z,20.80
2017-09-04T11:59:39.949Z,20.90
2017-09-04T12:02:06.756Z,21.00
2017-09-04T12:04:33.270Z,21.10
2017-09-04T12:07:00.009Z,20.90
2017-09-04T12:09:26.500Z,20.60
2017-09-04T12:11:53.191Z,20.50
2017-09-04T12:14:19.942Z,20.70
2017-09-04T12:16:46.413Z,20.90
2017-09-04T12:19:13.098Z,20.80
2017-09-04T12:21:39.672Z,20.90
2017-09-04T12:24:06.495Z,21.00
2017-09-04T12:26:32.957Z,21.10
2017-09-04T12:28:59.660Z,21.20
2017-09-04T12:31:26.124Z,21.20
2017-09-04T12:33:52.841Z,21.20
2017-09-04T12:36:19.682Z,21.30
2017-09-04T12:38:46.156Z,21.50
2017-09-04T12:41:12.635Z,21.60
2017-09-04T12:43:39.277Z,21.50
2017-09-04T12:46:06.014Z,21.40
2017-09-04T12:48:32.502Z,21.50
2017-09-04T12:50:58.947Z,21.80
2017-09-04T12:53:25.743Z,22.00
2017-09-04T12:55:52.191Z,22.20
2017-09-04T12:58:18.999Z,22.20
2017-09-04T13:00:45.468Z,22.30
2017-09-04T13:03:12.186Z,22.30
2017-09-04T13:05:38.655Z,22.30
2017-09-04T13:08:05.351Z,22.10
2017-09-04T13:10:37.996Z,22.00
2017-09-04T13:13:10.805Z,22.00
2017-09-04T13:18:42.693Z,21.80
2017-09-04T13:21:15.371Z,21.80
2017-09-04T13:23:47.976Z,21.50
2017-09-04T13:26:20.432Z,21.50
2017-09-04T13:28:53.118Z,21.40
2017-09-04T13:31:21.799Z,21.50
2017-09-04T13:33:54.399Z,21.60
2017-09-04T13:36:27.466Z,21.70
2017-09-04T13:39:00.059Z,21.90
2017-09-04T13:41:46.513Z,22.00
2017-09-04T13:44:28.105Z,21.80
2017-09-04T13:47:01.326Z,21.70
2017-09-04T13:49:28.878Z,21.70
2017-09-04T13:52:01.769Z,21.50
2017-09-04T13:54:29.196Z,21.50
2017-09-04T13:57:16.954Z,21.40
2017-09-04T13:59:49.657Z,21.40
2017-09-04T14:02:22.256Z,21.50
2017-09-04T14:04:48.757Z,21.60
2017-09-04T14:07:18.360Z,21.60
2017-09-04T14:09:50.869Z,21.50
2017-09-04T14:12:23.715Z,21.70
2017-09-04T14:15:03.209Z,21.80
2017-09-04T14:17:36.751Z,22.00
2017-09-04T14:20:03.397Z,21.90
2017-09-04T14:22:30.047Z,22.00
2017-09-04T14:24:56.535Z,22.00
2017-09-04T14:27:23.371Z,22.00
2017-09-04T14:29:50.149Z,22.00
2017-09-04T14:32:16.624Z,22.10
2017-09-04T14:34:43.328Z,22.00
2017-09-04T14:37:09.997Z,22.00
2017-09-04T14:39:36.523Z,22.00
2017-09-04T14:42:03.035Z,21.80
2017-09-04T14:44:29.788Z,21.70
2017-09-04T14:47:11.471Z,21.70
2017-09-04T14:49:38.100Z,21.80
2017-09-04T14:52:04.798Z,21.70
2017-09-04T14:54:31.337Z,21.70
2017-09-04T14:56:58.128Z,21.40
2017-09-04T14:59:24.979Z,21.40
2017-09-04T15:01:51.499Z,21.60
2017-09-04T15:04:18.296Z,21.70
2017-09-04T15:06:45.003Z,21.80
2017-09-04T15:09:11.714Z,21.90
2017-09-04T15:11:38.189Z,22.00
2017-09-04T15:14:04.906Z,22.00
2017-09-04T15:16:31.407Z,21.90
2017-09-04T15:18:58.065Z,21.70
2017-09-04T15:21:24.538Z,21.50
2017-09-04T15:23:51.227Z,21.20
2017-09-04T15:26:17.869Z,21.10
2017-09-04T15:28:44.342Z,21.00
2017-09-04T15:31:10.815Z,21.00
2017-09-04T15:33:37.483Z,21.00
2017-09-04T15:36:03.958Z,21.00
2017-09-04T15:38:30.605Z,20.80
2017-09-04T15:40:57.248Z,20.70
2017-09-04T15:43:23.949Z,20.80
2017-09-04T15:45:50.423Z,21.00
2017-09-04T15:48:16.916Z,21.10
2017-09-04T15:50:43.641Z,21.20
2017-09-04T15:53:10.381Z,21.30
2017-09-04T15:55:37.156Z,21.30
2017-09-04T15:58:03.970Z,21.40
2017-09-04T16:00:30.477Z,21.40
2017-09-04T16:02:57.239Z,21.40
2017-09-04T16:05:24.543Z,21.20
2017-09-04T16:07:52.264Z,21.10
2017-09-04T16:10:18.750Z,21.00
2017-09-04T16:13:01.177Z,21.00
2017-09-04T16:15:27.942Z,20.90
2017-09-04T16:17:54.591Z,20.70
2017-09-04T16:20:27.259Z,20.60
2017-09-04T16:22:54.522Z,20.50
2017-09-04T16:25:24.325Z,20.40
2017-09-04T16:27:57.006Z,20.30
2017-09-04T16:30:27.469Z,20.30
2017-09-04T16:33:15.366Z,20.40
2017-09-04T16:35:44.679Z,20.30
2017-09-04T16:38:26.267Z,20.30
2017-09-04T16:40:54.031Z,20.10
2017-09-04T16:43:20.765Z,20.10
2017-09-04T16:45:50.168Z,20.10
2017-09-04T16:48:19.566Z,20.10
2017-09-04T16:50:48.127Z,20.10
2017-09-04T16:53:25.789Z,20.00
2017-09-04T16:55:55.266Z,20.00
2017-09-04T16:58:21.918Z,20.10
2017-09-04T17:00:48.405Z,20.00
2017-09-04T17:03:15.073Z,20.00
2017-09-04T17:05:41.821Z,19.90
2017-09-04T17:08:08.312Z,19.80
2017-09-04T17:10:40.176Z,19.60
2017-09-04T17:13:07.559Z,19.40
2017-09-04T17:15:34.392Z,19.40
2017-09-04T17:18:02.837Z,19.20
2017-09-04T17:20:30.639Z,19.20
2017-09-04T17:22:57.969Z,19.00
2017-09-04T17:25:24.750Z,18.90
2017-09-04T17:27:51.253Z,18.90
2017-09-04T17:30:17.747Z,18.70
2017-09-04T17:32:44.447Z,18.60
2017-09-04T17:35:10.969Z,18.60
2017-09-04T17:37:37.667Z,18.50
2017-09-04T17:40:04.156Z,18.30
2017-09-04T17:42:30.992Z,18.20
2017-09-04T17:44:57.643Z,18.10
2017-09-04T17:47:24.103Z,18.10
2017-09-04T17:49:50.817Z,18.00
2017-09-04T17:52:17.580Z,17.80
2017-09-04T17:54:44.089Z,17.80
2017-09-04T17:57:10.828Z,17.80
2017-09-04T17:59:37.670Z,17.80
2017-09-04T18:02:04.144Z,17.70
2017-09-04T18:04:30.784Z,17.60
2017-09-04T18:06:57.693Z,17.60
2017-09-04T18:09:24.430Z,17.50
2017-09-04T18:11:50.912Z,17.40
2017-09-04T18:14:17.614Z,17.50
2017-09-04T18:16:45.461Z,17.40
2017-09-04T18:19:11.933Z,17.30
2017-09-04T18:21:38.557Z,17.20
2017-09-04T18:24:05.199Z,17.20
2017-09-04T18:26:31.699Z,17.10
2017-09-04T18:28:58.346Z,17.00
2017-09-04T18:31:24.853Z,16.90
2017-09-04T18:33:51.339Z,16.90
2017-09-04T18:36:18.064Z,16.80
2017-09-04T18:38:44.819Z,16.90
2017-09-04T18:41:11.309Z,16.80
2017-09-04T18:43:37.973Z,16.80
2017-09-04T18:46:04.631Z,16.70
2017-09-04T18:48:31.341Z,16.60
2017-09-04T18:50:58.086Z,16.60
2017-09-04T18:53:24.760Z,16.50
2017-09-04T18:55:51.233Z,16.30
2017-09-04T18:58:17.937Z,16.30
2017-09-04T19:00:44.615Z,16.20
2017-09-04T19:03:11.862Z,16.00
2017-09-04T19:05:38.636Z,16.00
2017-09-04T19:08:05.382Z,16.00
2017-09-04T19:10:31.844Z,15.90
2017-09-04T19:12:58.568Z,15.90
2017-09-04T19:15:25.285Z,15.90
2017-09-04T19:17:51.767Z,15.90
2017-09-04T19:20:18.406Z,15.90
2017-09-04T19:22:45.101Z,15.80
2017-09-04T19:25:11.570Z,15.70
2017-09-04T19:27:39.096Z,15.60
2017-09-04T19:30:05.799Z,15.60
2017-09-04T19:32:32.296Z,15.60
2017-09-04T19:34:58.943Z,15.40
2017-09-04T19:37:25.623Z,15.40
2017-09-04T19:39:52.102Z,15.30
2017-09-04T19:42:18.819Z,15.20
2017-09-04T19:44:45.661Z,15.10
2017-09-04T19:47:12.428Z,15.00
2017-09-04T19:49:38.883Z,14.90
2017-09-04T19:52:05.422Z,14.80
2017-09-04T19:54:32.085Z,14.70
2017-09-04T19:56:58.547Z,14.70
2017-09-04T19:59:25.390Z,14.70
2017-09-04T20:01:51.942Z,14.70
2017-09-04T20:04:18.672Z,14.70
2017-09-04T20:06:45.162Z,14.50
2017-09-04T20:09:11.948Z,14.60
2017-09-04T20:11:38.422Z,14.60
2017-09-04T20:14:04.919Z,14.60
2017-09-04T20:16:31.588Z,14.60
2017-09-04T20:18:58.287Z,14.60
2017-09-04T20:21:25.028Z,14.50
2017-09-04T20:23:52.619Z,14.40
2017-09-04T20:26:19.399Z,14.40
2017-09-04T20:28:46.165Z,14.50
2017-09-04T20:31:12.643Z,14.50
2017-09-04T20:33:39.280Z,14.40
2017-09-04T20:36:05.749Z,14.20
2017-09-04T20:38:32.427Z,14.20
2017-09-04T20:40:58.912Z,14.20
2017-09-04T20:43:25.591Z,14.20
2017-09-04T20:45:53.067Z,14.20
2017-09-04T20:48:19.509Z,14.20
2017-09-04T20:50:46.137Z,14.20
2017-09-04T20:53:12.956Z,14.20
2017-09-04T20:55:39.592Z,14.30
2017-09-04T20:58:06.183Z,14.30
2017-09-04T21:00:32.825Z,14.30
2017-09-04T21:02:59.489Z,14.40
2017-09-04T21:05:26.150Z,14.40
2017-09-04T21:07:52.783Z,14.40
2017-09-04T21:10:19.226Z,14.40
2017-09-04T21:12:45.995Z,14.30
2017-09-04T21:15:12.695Z,14.20
2017-09-04T21:17:39.436Z,14.20
2017-09-04T21:20:05.913Z,14.20
2017-09-04T21:22:32.383Z,14.30
2017-09-04T21:24:59.189Z,14.40
2017-09-04T21:27:25.692Z,14.30
2017-09-04T21:29:52.418Z,14.50
2017-09-04T21:32:19.261Z,14.60
2017-09-04T21:34:46.004Z,14.70
2017-09-04T21:37:12.502Z,14.70
2017-09-04T21:39:39.123Z,14.50
2017-09-04T21:42:06.089Z,14.40
2017-09-04T21:44:33.477Z,14.50
2017-09-04T21:46:59.915Z,14.50
2017-09-04T21:49:26.575Z,14.60
2017-09-04T21:51:53.282Z,14.50
2017-09-04T21:54:19.728Z,14.60
2017-09-04T21:56:46.172Z,14.50
2017-09-04T21:59:12.888Z,14.50
2017-09-04T22:01:39.737Z,14.50
2017-09-04T22:04:06.185Z,14.60
2017-09-04T22:06:32.913Z,14.60
2017-09-04T22:08:59.336Z,14.50
2017-09-04T22:11:26.016Z,14.40
2017-09-04T22:13:52.716Z,14.30
2017-09-04T22:16:19.207Z,14.30
2017-09-04T22:18:45.658Z,14.30
2017-09-04T22:21:13.049Z,14.20
2017-09-04T22:23:39.484Z,14.20
2017-09-04T22:26:05.939Z,14.30
2017-09-04T22:28:32.648Z,14.30
2017-09-04T22:30:59.389Z,14.30
2017-09-04T22:33:25.888Z,14.30
2017-09-04T22:35:52.642Z,14.30
2017-09-04T22:38:19.297Z,14.30
2017-09-04T22:40:45.717Z,14.40
2017-09-04T22:43:12.374Z,14.30
2017-09-04T22:45:38.859Z,14.20
2017-09-04T22:48:05.536Z,14.20
2017-09-04T22:50:31.997Z,14.20
2017-09-04T22:52:58.717Z,14.20
2017-09-04T22:55:25.462Z,14.30
2017-09-04T22:57:51.927Z,14.20
2017-09-04T23:00:18.385Z,14.30
2017-09-04T23:02:45.069Z,14.40
2017-09-04T23:05:11.809Z,14.30
2017-09-04T23:07:38.299Z,14.40
2017-09-04T23:10:04.957Z,14.40
2017-09-04T23:12:31.824Z,14.30
2017-09-04T23:14:58.281Z,14.30
2017-09-04T23:17:24.810Z,14.50
2017-09-04T23:19:51.600Z,14.40
2017-09-04T23:22:18.382Z,14.40
2017-09-04T23:24:44.883Z,14.40
2017-09-04T23:27:12.368Z,14.30
2017-09-04T23:29:38.981Z,14.40
2017-09-04T23:32:06.204Z,14.40
2017-09-04T23:34:32.683Z,14.40
2017-09-04T23:36:59.351Z,14.30
2017-09-04T23:39:25.840Z,14.40
2017-09-04T23:41:52.705Z,14.40
2017-09-04T23:44:19.546Z,14.40
2017-09-04T23:46:46.007Z,14.40
2017-09-04T23:49:12.823Z,14.40
2017-09-04T23:51:39.562Z,14.40
2017-09-04T23:54:06.297Z,14.30
2017-09-04T23:56:32.759Z,14.40
2017-09-04T23:58:59.511Z,14.40
